createdAt,value
2019-03-29T00:01:00.779Z,102260.04
2019-03-29T00:03:35.622Z,102254.98
2019-03-29T00:06:11.870Z,102259.92
2019-03-29T00:08:47.746Z,102253.51
2019-03-29T00:11:22.742Z,102253.30
2019-03-29T00:13:56.683Z,102254.16
2019-03-29T00:16:32.737Z,102268.34
2019-03-29T00:19:07.673Z,102265.00
2019-03-29T00:21:43.751Z,102267.25
2019-03-29T00:24:17.706Z,102261.58
2019-03-29T00:26:53.752Z,102253.92
2019-03-29T00:29:28.011Z,102259.09
2019-03-29T00:34:16.506Z,102257.47
2019-03-29T00:36:49.816Z,102254.90
2019-03-29T00:39:23.338Z,102262.20
2019-03-29T00:41:56.445Z,102260.34
2019-03-29T00:44:29.532Z,102259.48
2019-03-29T00:47:04.076Z,102259.33
2019-03-29T00:49:37.884Z,102260.69
2019-03-29T00:52:11.362Z,102251.80
2019-03-29T00:54:45.318Z,102260.34
2019-03-29T00:57:18.853Z,102256.26
2019-03-29T00:59:53.000Z,102258.86
2019-03-29T01:02:26.445Z,102260.60
2019-03-29T01:04:59.815Z,102259.59
2019-03-29T01:07:33.329Z,102250.85
2019-03-29T01:10:08.338Z,102254.04
2019-03-29T01:12:41.851Z,102254.04
2019-03-29T01:15:15.806Z,102248.48
2019-03-29T01:17:49.411Z,102248.98
2019-03-29T01:20:22.933Z,102248.75
2019-03-29T01:22:56.411Z,102250.97
2019-03-29T01:25:29.494Z,102253.42
2019-03-29T01:28:02.640Z,102244.41
2019-03-29T01:30:35.991Z,102244.28
2019-03-29T01:33:09.336Z,102244.28
2019-03-29T01:35:42.500Z,102247.51
2019-03-29T01:38:21.599Z,102243.81
2019-03-29T01:40:50.898Z,102240.59
2019-03-29T01:43:24.359Z,102240.59
2019-03-29T01:45:57.446Z,102234.56
2019-03-29T01:48:30.812Z,102234.06
2019-03-29T01:51:04.320Z,102234.30
2019-03-29T01:53:38.006Z,102230.58
2019-03-29T01:56:11.618Z,102232.05
2019-03-29T01:58:44.903Z,102227.50
2019-03-29T02:01:18.864Z,102227.50
2019-03-29T02:06:13.609Z,102215.34
2019-03-29T02:08:46.922Z,102216.63
2019-03-29T02:11:20.836Z,102216.63
2019-03-29T02:13:54.459Z,102210.45
2019-03-29T02:16:27.902Z,102218.25
2019-03-29T02:19:01.351Z,102214.52
2019-03-29T02:21:35.414Z,102216.89
2019-03-29T02:24:08.856Z,102214.64
2019-03-29T02:26:42.391Z,102205.28
2019-03-29T02:29:15.877Z,102209.35
2019-03-29T02:31:49.772Z,102207.38
2019-03-29T02:34:22.122Z,102205.12
2019-03-29T02:36:55.557Z,102204.27
2019-03-29T02:39:28.919Z,102186.75
2019-03-29T02:42:02.853Z,102186.75
2019-03-29T02:44:36.801Z,102199.22
2019-03-29T02:47:10.396Z,102190.44
2019-03-29T02:49:43.906Z,102192.03
2019-03-29T02:52:17.448Z,102200.19
2019-03-29T02:54:50.939Z,102195.25
2019-03-29T02:57:24.850Z,102199.60
2019-03-29T02:59:58.337Z,102194.40
2019-03-29T03:02:31.823Z,102190.32
2019-03-29T03:05:05.536Z,102186.98
2019-03-29T03:07:39.317Z,102186.98
2019-03-29T03:10:14.886Z,102189.23
2019-03-29T03:12:48.399Z,102188.84
2019-03-29T03:15:21.580Z,102189.61
2019-03-29T03:17:55.021Z,102186.39
2019-03-29T03:20:28.861Z,102169.11
2019-03-29T03:23:02.877Z,102190.83
2019-03-29T03:25:36.746Z,102183.29
2019-03-29T03:28:10.485Z,102180.69
2019-03-29T03:30:43.880Z,102182.81
2019-03-29T03:33:17.414Z,102182.67
2019-03-29T03:35:50.827Z,102182.94
2019-03-29T03:38:24.457Z,102179.48
2019-03-29T03:40:57.877Z,102175.05
2019-03-29T03:43:31.486Z,102173.98
2019-03-29T03:46:04.899Z,102155.67
2019-03-29T03:48:38.918Z,102155.67
2019-03-29T03:51:12.387Z,102169.73
2019-03-29T03:53:45.997Z,102169.81
2019-03-29T03:56:20.285Z,102167.71
2019-03-29T03:58:54.327Z,102171.91
2019-03-29T04:01:27.544Z,102164.77
2019-03-29T04:04:00.921Z,102169.46
2019-03-29T04:06:34.627Z,102167.72
2019-03-29T04:09:09.499Z,102168.61
2019-03-29T04:11:42.882Z,102168.61
2019-03-29T04:14:16.329Z,102169.34
2019-03-29T04:16:49.825Z,102167.63
2019-03-29T04:19:23.284Z,102170.08
2019-03-29T04:21:56.517Z,102168.14
2019-03-29T04:24:30.383Z,102168.61
2019-03-29T04:27:03.756Z,102171.33
2019-03-29T04:29:35.757Z,102167.02
2019-03-29T04:32:09.333Z,102168.76
2019-03-29T04:34:42.890Z,102168.61
2019-03-29T04:37:16.559Z,102171.23
2019-03-29T04:40:06.320Z,102171.86
2019-03-29T04:42:25.394Z,102170.73
2019-03-29T04:44:59.990Z,102171.98
2019-03-29T04:47:34.041Z,102176.91
2019-03-29T04:50:08.387Z,102174.43
2019-03-29T04:52:42.040Z,102180.37
2019-03-29T04:55:16.022Z,102176.76
2019-03-29T04:57:49.814Z,102179.16
2019-03-29T05:00:26.813Z,102179.89
2019-03-29T05:03:00.012Z,102180.28
2019-03-29T05:05:33.490Z,102184.70
2019-03-29T05:08:07.301Z,102189.53
2019-03-29T05:10:41.413Z,102184.09
2019-03-29T05:13:14.664Z,102184.62
2019-03-29T05:15:48.327Z,102190.62
2019-03-29T05:18:21.821Z,102190.62
2019-03-29T05:20:55.336Z,102189.41
2019-03-29T05:23:28.414Z,102187.31
2019-03-29T05:26:02.337Z,102194.84
2019-03-29T05:28:35.520Z,102188.91
2019-03-29T05:31:09.375Z,102189.53
2019-03-29T05:33:43.324Z,102194.22
2019-03-29T05:36:16.449Z,102193.61
2019-03-29T05:38:49.533Z,102194.61
2019-03-29T05:41:23.623Z,102191.98
2019-03-29T05:43:57.075Z,102182.73
2019-03-29T05:46:30.793Z,102182.73
2019-03-29T05:49:04.325Z,102189.64
2019-03-29T05:51:38.035Z,102196.20
2019-03-29T05:54:11.578Z,102197.92
2019-03-29T05:56:44.317Z,102193.34
2019-03-29T05:59:18.379Z,102192.59
2019-03-29T06:01:54.391Z,102197.92
2019-03-29T06:04:37.964Z,102202.20
2019-03-29T06:07:08.848Z,102200.96
2019-03-29T06:09:42.572Z,102198.63
2019-03-29T06:12:16.107Z,102193.55
2019-03-29T06:14:50.095Z,102193.55
2019-03-29T06:17:23.847Z,102199.10
2019-03-29T06:19:57.567Z,102196.03
2019-03-29T06:22:31.020Z,102180.88
2019-03-29T06:25:04.494Z,102180.88
2019-03-29T06:27:37.653Z,102202.17
2019-03-29T06:30:09.964Z,102201.47
2019-03-29T06:32:43.780Z,102192.80
2019-03-29T06:35:17.322Z,102196.50
2019-03-29T06:37:50.556Z,102188.84
2019-03-29T06:40:29.304Z,102195.02
2019-03-29T06:43:02.806Z,102190.94
2019-03-29T06:45:47.309Z,102184.38
2019-03-29T06:48:11.426Z,102185.70
2019-03-29T06:50:44.681Z,102185.08
2019-03-29T06:53:16.774Z,102184.34
2019-03-29T06:55:48.892Z,102186.05
2019-03-29T06:58:22.453Z,102189.78
2019-03-29T07:00:56.376Z,102191.14
2019-03-29T07:03:30.147Z,102189.16
2019-03-29T07:06:03.880Z,102185.94
2019-03-29T07:08:37.381Z,102184.34
2019-03-29T07:11:17.555Z,102186.44
2019-03-29T07:13:57.519Z,102187.06
2019-03-29T07:16:22.056Z,102184.84
2019-03-29T07:18:55.575Z,102190.64
2019-03-29T07:21:29.092Z,102194.21
2019-03-29T07:24:03.330Z,102194.21
2019-03-29T07:26:37.018Z,102193.70
2019-03-29T07:29:10.427Z,102191.84
2019-03-29T07:31:43.583Z,102190.48
2019-03-29T07:34:17.516Z,102191.73
2019-03-29T07:36:51.630Z,102191.73
2019-03-29T07:39:25.321Z,102173.82
2019-03-29T07:41:58.624Z,102173.82
2019-03-29T07:44:32.535Z,102186.75
2019-03-29T07:47:06.090Z,102186.75
2019-03-29T07:49:39.427Z,102189.20
2019-03-29T07:52:13.086Z,102189.32
2019-03-29T07:54:46.733Z,102189.59
2019-03-29T07:57:18.766Z,102189.32
2019-03-29T07:59:50.904Z,102190.91
2019-03-29T08:02:24.461Z,102191.53
2019-03-29T08:04:58.133Z,102190.91
2019-03-29T08:07:33.818Z,102190.64
2019-03-29T08:10:18.886Z,102193.59
2019-03-29T08:12:49.836Z,102191.38
2019-03-29T08:15:24.471Z,102190.02
2019-03-29T08:18:01.386Z,102191.38
2019-03-29T08:20:40.593Z,102195.45
2019-03-29T08:23:12.634Z,102191.76
2019-03-29T08:25:47.318Z,102188.03
2019-03-29T08:28:22.707Z,102187.92
2019-03-29T08:30:55.632Z,102184.69
2019-03-29T08:33:29.536Z,102192.19
2019-03-29T08:36:06.141Z,102193.20
2019-03-29T08:38:40.531Z,102193.20
2019-03-29T08:41:13.400Z,102188.03
2019-03-29T08:43:47.321Z,102181.42
2019-03-29T08:46:27.315Z,102186.52
2019-03-29T08:49:17.468Z,102188.45
2019-03-29T08:51:51.461Z,102192.58
2019-03-29T08:54:25.008Z,102193.31
2019-03-29T08:56:59.329Z,102196.89
2019-03-29T08:59:33.318Z,102191.45
2019-03-29T09:02:09.279Z,102187.32
2019-03-29T09:04:48.883Z,102189.69
2019-03-29T09:07:23.291Z,102192.26
2019-03-29T09:09:56.894Z,102182.45
2019-03-29T09:12:30.400Z,102178.66
2019-03-29T09:15:04.283Z,102172.70
2019-03-29T09:17:37.908Z,102175.94
2019-03-29T09:20:11.373Z,102171.50
2019-03-29T09:22:44.935Z,102176.31
2019-03-29T09:25:21.128Z,102177.80
2019-03-29T09:28:06.600Z,102168.63
2019-03-29T09:31:30.282Z,102168.00
2019-03-29T09:34:20.758Z,102168.63
2019-03-29T09:37:15.304Z,102163.41
2019-03-29T09:39:57.384Z,102171.80
2019-03-29T09:43:15.097Z,102171.63
2019-03-29T09:46:20.044Z,102171.63
2019-03-29T09:53:27.820Z,102170.22
2019-03-29T09:57:09.937Z,102167.27
2019-03-29T09:59:44.461Z,102165.83
2019-03-29T10:02:19.406Z,102162.83
2019-03-29T10:04:52.922Z,102166.06
2019-03-29T10:07:26.373Z,102162.20
2019-03-29T10:10:00.557Z,102163.80
2019-03-29T10:12:43.255Z,102163.06
2019-03-29T10:15:15.540Z,102163.06
2019-03-29T10:17:54.702Z,102163.80
2019-03-29T10:20:28.966Z,102163.80
2019-03-29T10:23:06.779Z,102159.21
2019-03-29T10:25:39.276Z,102158.36
2019-03-29T10:28:13.098Z,102155.48
2019-03-29T10:30:48.125Z,102151.16
2019-03-29T10:33:21.821Z,102148.66
2019-03-29T10:35:58.271Z,102150.24
2019-03-29T10:38:33.514Z,102142.78
2019-03-29T10:41:07.703Z,102141.80
2019-03-29T10:43:41.959Z,102134.34
2019-03-29T10:46:19.363Z,102136.81
2019-03-29T10:48:59.521Z,102130.27
2019-03-29T10:51:33.373Z,102104.39
2019-03-29T10:54:06.659Z,102104.39
2019-03-29T10:56:38.883Z,102116.50
2019-03-29T10:59:26.341Z,102114.85
2019-03-29T11:01:48.347Z,102117.00
2019-03-29T11:04:21.589Z,102114.16
2019-03-29T11:06:55.097Z,102100.45
2019-03-29T11:09:28.636Z,102100.45
2019-03-29T11:12:02.336Z,102094.19
2019-03-29T11:14:36.319Z,102094.19
2019-03-29T11:17:11.355Z,102097.38
2019-03-29T11:19:46.054Z,102086.94
2019-03-29T11:22:19.585Z,102083.64
2019-03-29T11:24:53.854Z,102070.95
2019-03-29T11:27:27.391Z,102070.95
2019-03-29T11:30:00.913Z,102078.64
2019-03-29T11:32:37.605Z,102075.35
2019-03-29T11:35:11.110Z,102064.81
2019-03-29T11:37:44.669Z,102064.81
2019-03-29T11:40:18.338Z,102055.50
2019-03-29T11:42:52.327Z,102055.50
2019-03-29T11:45:26.335Z,102057.37
2019-03-29T11:48:08.606Z,102053.41
2019-03-29T11:50:35.100Z,102046.61
2019-03-29T11:53:08.827Z,102046.61
2019-03-29T11:55:42.274Z,102053.00
2019-03-29T11:58:16.053Z,102045.75
2019-03-29T12:00:49.925Z,102040.24
2019-03-29T12:03:54.269Z,102038.44
2019-03-29T12:06:35.952Z,102038.73
2019-03-29T12:09:11.318Z,102030.78
2019-03-29T12:11:45.097Z,102030.66
2019-03-29T12:14:22.395Z,102029.13
2019-03-29T12:16:55.312Z,102022.61
2019-03-29T12:19:28.077Z,102013.59
2019-03-29T12:22:01.341Z,102013.22
2019-03-29T12:24:34.759Z,102008.72
2019-03-29T12:27:07.791Z,102007.77
2019-03-29T12:29:40.806Z,101996.53
2019-03-29T12:32:13.819Z,101994.53
2019-03-29T12:34:47.327Z,101993.72
2019-03-29T12:37:20.066Z,101990.78
2019-03-29T12:39:53.069Z,101980.48
2019-03-29T12:42:25.993Z,101983.55
2019-03-29T12:44:58.884Z,101979.69
2019-03-29T12:47:31.853Z,101971.69
2019-03-29T12:50:04.780Z,101965.02
2019-03-29T12:52:36.648Z,101960.80
2019-03-29T12:55:09.772Z,101951.98
2019-03-29T12:57:42.754Z,101951.98
2019-03-29T13:00:14.638Z,101946.77
2019-03-29T13:02:47.363Z,101919.62
2019-03-29T13:05:20.010Z,101919.62
2019-03-29T13:07:53.376Z,101933.56
2019-03-29T13:10:25.636Z,101935.66
2019-03-29T13:13:01.882Z,101912.13
2019-03-29T13:15:36.845Z,101912.13
2019-03-29T13:18:12.328Z,101917.33
2019-03-29T13:20:45.312Z,101913.62
2019-03-29T13:23:18.329Z,101907.45
2019-03-29T13:25:51.648Z,101903.50
2019-03-29T13:28:24.771Z,101888.31
2019-03-29T13:30:56.763Z,101888.31
2019-03-29T13:33:37.074Z,101900.78
2019-03-29T13:36:10.376Z,101894.57
2019-03-29T13:38:43.367Z,101889.39
2019-03-29T13:41:16.264Z,101888.70
2019-03-29T13:43:48.996Z,101883.25
2019-03-29T13:46:21.862Z,101880.38
2019-03-29T13:48:54.782Z,101883.47
2019-03-29T13:51:26.597Z,101879.30
2019-03-29T13:53:59.574Z,101865.13
2019-03-29T13:56:32.307Z,101867.78
2019-03-29T13:59:05.070Z,101867.78
2019-03-29T14:01:38.023Z,101871.06
2019-03-29T14:04:11.193Z,101870.34
2019-03-29T14:06:44.066Z,101863.83
2019-03-29T14:09:16.889Z,101856.17
2019-03-29T14:11:50.309Z,101853.75
2019-03-29T14:14:23.058Z,101853.31
2019-03-29T14:16:55.914Z,101850.59
2019-03-29T14:19:28.841Z,101846.43
2019-03-29T14:22:01.765Z,101836.78
2019-03-29T14:24:33.633Z,101835.47
2019-03-29T14:27:06.352Z,101825.44
2019-03-29T14:29:39.849Z,101825.44
2019-03-29T14:32:13.358Z,101821.30
2019-03-29T14:34:46.408Z,101821.52
2019-03-29T14:37:19.369Z,101815.27
2019-03-29T14:39:52.045Z,101814.92
2019-03-29T14:42:24.908Z,101810.76
2019-03-29T14:44:58.381Z,101802.97
2019-03-29T14:47:42.658Z,101802.30
2019-03-29T14:50:04.651Z,101790.77
2019-03-29T14:52:37.230Z,101792.94
2019-03-29T14:55:13.140Z,101792.94
2019-03-29T14:57:45.914Z,101793.28
2019-03-29T15:00:40.311Z,101794.01
2019-03-29T15:03:14.138Z,101788.43
2019-03-29T15:05:48.354Z,101791.53
2019-03-29T15:08:22.436Z,101800.11
2019-03-29T15:10:55.310Z,101792.38
2019-03-29T15:13:29.801Z,101789.67
2019-03-29T15:16:02.782Z,101785.46
2019-03-29T15:18:36.413Z,101781.55
2019-03-29T15:21:10.529Z,101777.14
2019-03-29T15:23:42.637Z,101777.48
2019-03-29T15:26:15.772Z,101760.05
2019-03-29T15:28:47.657Z,101760.05
2019-03-29T15:31:19.654Z,101762.19
2019-03-29T15:33:51.617Z,101757.19
2019-03-29T15:36:25.536Z,101752.78
2019-03-29T15:41:29.835Z,101748.58
2019-03-29T15:44:04.794Z,101748.58
2019-03-29T15:46:37.801Z,101749.00
2019-03-29T15:49:10.997Z,101743.98
2019-03-29T15:51:44.358Z,101748.27
2019-03-29T15:54:17.777Z,101742.50
2019-03-29T15:56:50.489Z,101746.33
2019-03-29T15:59:24.469Z,101740.03
2019-03-29T16:01:57.310Z,101743.49
2019-03-29T16:04:30.747Z,101740.17
2019-03-29T16:07:02.539Z,101736.20
2019-03-29T16:09:35.026Z,101735.63
2019-03-29T16:12:07.977Z,101735.88
2019-03-29T16:14:40.841Z,101731.08
2019-03-29T16:17:13.982Z,101731.73
2019-03-29T16:19:46.830Z,101720.83
2019-03-29T16:22:29.251Z,101719.61
2019-03-29T16:25:02.201Z,101723.36
2019-03-29T16:27:35.308Z,101721.59
2019-03-29T16:30:09.347Z,101720.03
2019-03-29T16:32:47.219Z,101719.49
2019-03-29T16:35:21.631Z,101718.37
2019-03-29T16:37:57.406Z,101715.78
2019-03-29T16:40:31.190Z,101703.34
2019-03-29T16:43:04.081Z,101703.34
2019-03-29T16:45:47.236Z,101702.55
2019-03-29T16:48:17.462Z,101695.99
2019-03-29T16:50:55.525Z,101696.67
2019-03-29T16:53:33.512Z,101695.27
2019-03-29T16:56:06.683Z,101684.37
2019-03-29T16:58:40.343Z,101684.00
2019-03-29T17:01:13.355Z,101684.00
2019-03-29T17:03:46.299Z,101677.42
2019-03-29T17:06:19.291Z,101675.14
2019-03-29T17:08:52.255Z,101674.23
2019-03-29T17:11:25.056Z,101674.36
2019-03-29T17:13:57.895Z,101670.53
2019-03-29T17:16:31.302Z,101677.76
2019-03-29T17:19:04.033Z,101672.67
2019-03-29T17:21:36.982Z,101672.30
2019-03-29T17:24:10.049Z,101674.50
2019-03-29T17:26:43.494Z,101672.61
2019-03-29T17:29:16.304Z,101664.70
2019-03-29T17:31:49.062Z,101660.53
2019-03-29T17:34:22.121Z,101651.80
2019-03-29T17:36:54.853Z,101658.73
2019-03-29T17:39:27.779Z,101653.26
2019-03-29T17:42:00.778Z,101650.22
2019-03-29T17:44:34.059Z,101641.98
2019-03-29T17:47:06.977Z,101642.81
2019-03-29T17:49:40.294Z,101644.98
2019-03-29T17:52:13.061Z,101649.55
2019-03-29T17:54:46.099Z,101645.23
2019-03-29T17:57:19.297Z,101640.89
2019-03-29T17:59:52.307Z,101647.48
2019-03-29T18:02:24.973Z,101648.16
2019-03-29T18:04:57.906Z,101646.59
2019-03-29T18:07:30.866Z,101649.61
2019-03-29T18:10:03.834Z,101648.67
2019-03-29T18:12:36.982Z,101646.14
2019-03-29T18:15:10.340Z,101642.84
2019-03-29T18:17:43.301Z,101638.14
2019-03-29T18:20:16.765Z,101639.65
2019-03-29T18:22:49.284Z,101641.45
2019-03-29T18:25:22.366Z,101646.07
2019-03-29T18:27:54.973Z,101644.83
2019-03-29T18:30:43.398Z,101647.37
2019-03-29T18:33:16.066Z,101652.25
2019-03-29T18:35:48.950Z,101650.02
2019-03-29T18:38:21.907Z,101641.45
2019-03-29T18:40:54.818Z,101647.36
2019-03-29T18:43:27.876Z,101645.80
2019-03-29T18:46:00.873Z,101635.23
2019-03-29T18:48:34.039Z,101641.91
2019-03-29T18:51:07.301Z,101649.98
2019-03-29T18:53:40.302Z,101644.27
2019-03-29T18:56:13.353Z,101646.20
2019-03-29T18:58:46.266Z,101640.05
2019-03-29T19:01:19.053Z,101649.05
2019-03-29T19:03:51.907Z,101651.45
2019-03-29T19:06:25.005Z,101643.56
2019-03-29T19:08:58.010Z,101644.77
2019-03-29T19:11:30.816Z,101642.52
2019-03-29T19:14:03.796Z,101652.56
2019-03-29T19:16:35.616Z,101644.21
2019-03-29T19:19:10.245Z,101621.28
2019-03-29T19:21:43.005Z,101621.28
2019-03-29T19:24:15.884Z,101639.70
2019-03-29T19:26:48.869Z,101643.13
2019-03-29T19:29:21.845Z,101641.28
2019-03-29T19:31:56.151Z,101642.95
2019-03-29T19:34:30.805Z,101633.93
2019-03-29T19:37:03.785Z,101640.75
2019-03-29T19:39:36.090Z,101637.70
2019-03-29T19:42:16.633Z,101635.61
2019-03-29T19:44:49.059Z,101636.59
2019-03-29T19:47:33.396Z,101636.53
2019-03-29T19:50:07.510Z,101635.15
2019-03-29T19:52:42.720Z,101635.75
2019-03-29T19:55:15.279Z,101631.61
2019-03-29T19:57:50.990Z,101628.12
2019-03-29T20:00:50.112Z,101629.46
2019-03-29T20:03:23.876Z,101629.27
2019-03-29T20:05:57.394Z,101625.09
2019-03-29T20:08:31.525Z,101626.45
2019-03-29T20:11:05.065Z,101625.53
2019-03-29T20:13:38.860Z,101625.53
2019-03-29T20:16:13.119Z,101622.45
2019-03-29T20:18:47.318Z,101626.94
2019-03-29T20:21:20.847Z,101626.13
2019-03-29T20:23:54.577Z,101623.37
2019-03-29T20:26:28.367Z,101614.28
2019-03-29T20:29:01.851Z,101614.28
2019-03-29T20:31:42.626Z,101627.04
2019-03-29T20:34:16.325Z,101613.67
2019-03-29T20:36:50.105Z,101613.67
2019-03-29T20:39:24.339Z,101628.00
2019-03-29T20:41:57.633Z,101625.81
2019-03-29T20:44:31.526Z,101620.67
2019-03-29T20:47:05.470Z,101620.67
2019-03-29T20:49:39.552Z,101625.58
2019-03-29T20:52:13.094Z,101610.50
2019-03-29T20:54:46.450Z,101610.50
2019-03-29T20:57:20.323Z,101613.87
2019-03-29T20:59:54.782Z,101613.25
2019-03-29T21:02:29.373Z,101607.67
2019-03-29T21:05:04.668Z,101605.73
2019-03-29T21:07:38.394Z,101607.95
2019-03-29T21:10:17.649Z,101611.17
2019-03-29T21:12:51.425Z,101593.06
2019-03-29T21:15:29.450Z,101593.06
2019-03-29T21:18:07.263Z,101602.60
2019-03-29T21:20:43.220Z,101602.39
2019-03-29T21:23:16.454Z,101602.48
2019-03-29T21:25:51.411Z,101606.53
2019-03-29T21:28:28.225Z,101602.38
2019-03-29T21:31:03.767Z,101600.71
2019-03-29T21:33:42.745Z,101598.37
2019-03-29T21:36:23.498Z,101590.64
2019-03-29T21:39:09.033Z,101596.59
2019-03-29T21:41:45.828Z,101595.92
2019-03-29T21:44:21.843Z,101592.78
2019-03-29T21:47:00.499Z,101593.89
2019-03-29T21:49:35.731Z,101583.94
2019-03-29T21:52:27.546Z,101583.94
2019-03-29T21:55:01.037Z,101587.81
2019-03-29T21:57:34.501Z,101584.67
2019-03-29T22:00:14.647Z,101585.44
2019-03-29T22:02:49.402Z,101577.36
2019-03-29T22:05:27.933Z,101575.42
2019-03-29T22:08:02.654Z,101580.31
2019-03-29T22:10:35.651Z,101579.97
2019-03-29T22:13:10.693Z,101579.11
2019-03-29T22:15:46.693Z,101575.30
2019-03-29T22:18:21.737Z,101575.17
2019-03-29T22:20:56.783Z,101565.74
2019-03-29T22:23:34.811Z,101570.88
2019-03-29T22:26:10.685Z,101572.37
2019-03-29T22:28:48.830Z,101566.59
2019-03-29T22:31:26.770Z,101561.08
2019-03-29T22:34:03.892Z,101565.87
2019-03-29T22:36:42.208Z,101561.16
2019-03-29T22:39:21.371Z,101561.16
2019-03-29T22:41:57.795Z,101554.16
2019-03-29T22:44:33.781Z,101554.70
2019-03-29T22:47:10.739Z,101549.56
2019-03-29T22:49:44.703Z,101555.42
2019-03-29T22:52:18.980Z,101553.34
2019-03-29T22:54:55.697Z,101553.34
2019-03-29T22:57:29.683Z,101541.28
2019-03-29T23:00:04.686Z,101537.98
2019-03-29T23:02:40.686Z,101526.42
2019-03-29T23:05:20.896Z,101539.20
2019-03-29T23:07:57.819Z,101535.97
2019-03-29T23:10:34.758Z,101524.85
2019-03-29T23:13:09.033Z,101531.48
2019-03-29T23:15:45.760Z,101521.92
2019-03-29T23:18:22.931Z,101526.00
2019-03-29T23:20:58.810Z,101526.34
2019-03-29T23:23:36.012Z,101524.98
2019-03-29T23:26:15.264Z,101524.27
2019-03-29T23:28:54.196Z,101524.27
2019-03-29T23:31:30.741Z,101521.25
2019-03-29T23:34:04.684Z,101522.91
2019-03-29T23:36:40.777Z,101521.05
2019-03-29T23:39:16.821Z,101530.61
2019-03-29T23:41:52.734Z,101526.94
2019-03-29T23:44:27.667Z,101519.47
2019-03-29T23:47:02.892Z,101517.91
2019-03-29T23:49:38.715Z,101516.34
2019-03-29T23:52:14.757Z,101518.79
2019-03-29T23:54:48.697Z,101514.55
2019-03-29T23:57:23.855Z,101505.26
2019-03-29T23:59:58.891Z,101510.19
